Time;durP1;ratioP1;P1;durP2;ratioP2;P2;SDS_P1;SDS_P2;PMS_P1;PMS_P2;Temp;Humidity;BMP_temperature;BMP_pressure;BME280_temperature;BME280_humidity;BME280_pressure;Samples;Min_cycle;Max_cycle;Signal;HPM_P1;HPM_P2
2023/07/07 00:01:58;;;;;;;1.42;1.02;;;;;;;21.14;57.08;100175.25;10377575;28;96910;-90
2023/07/07 00:07:04;;;;;;;1.92;1.02;;;;;;;20.86;57.58;100173.22;10378246;28;97690;-91
2023/07/07 00:12:10;;;;;;;1.58;0.80;;;;;;;20.87;57.73;100182.91;10377861;28;97715;-91
2023/07/07 00:17:16;;;;;;;3.03;1.30;;;;;;;21.05;57.33;100179.56;10382122;28;96736;-91
2023/07/07 00:22:20;;;;;;;2.30;1.00;;;;;;;21.04;57.26;100177.00;10383499;28;96677;-92
2023/07/07 00:27:23;;;;;;;1.45;1.05;;;;;;;20.81;57.65;100173.56;10376812;28;96788;-91
2023/07/07 00:32:30;;;;;;;2.42;1.10;;;;;;;20.80;57.77;100166.53;10377307;28;96683;-90
2023/07/07 00:37:33;;;;;;;1.95;1.17;;;;;;;20.66;58.58;100171.31;10376946;28;96736;-90
2023/07/07 00:42:36;;;;;;;2.92;0.95;;;;;;;20.36;59.12;100172.84;10375671;28;97157;-91
2023/07/07 00:47:45;;;;;;;2.22;1.15;;;;;;;20.47;58.99;100169.31;10378504;28;96728;-91
2023/07/07 00:52:48;;;;;;;1.50;1.10;;;;;;;20.33;58.80;100157.06;10383380;28;96996;-90
2023/07/07 00:58:12;;;;;;;1.85;1.13;;;;;;;20.59;58.51;100148.72;10378177;28;96724;-90
2023/07/07 01:03:22;;;;;;;2.30;1.40;;;;;;;20.25;59.32;100145.28;10382784;28;96798;-90
2023/07/07 01:08:25;;;;;;;1.83;1.17;;;;;;;19.82;60.93;100139.00;10390326;28;96923;-91
2023/07/07 01:13:29;;;;;;;1.77;0.87;;;;;;;20.50;58.90;100139.66;10405580;28;96776;-89
2023/07/07 01:19:01;;;;;;;2.40;1.08;;;;;;;20.11;59.84;100124.16;10418291;28;97050;-90
2023/07/07 01:24:24;;;;;;;;;;;;;;;20.06;60.79;100127.22;10424287;28;96688;-90
2023/07/07 01:29:45;;;;;;;1.70;1.00;;;;;;;19.99;59.99;100120.66;10409143;27;97684;-90
2023/07/07 01:35:11;;;;;;;1.90;1.10;;;;;;;19.58;61.05;100120.41;10379010;28;98417;-89
2023/07/07 01:40:14;;;;;;;2.60;0.90;;;;;;;19.58;61.23;100114.25;10380254;28;96645;-89
2023/07/07 01:45:27;;;;;;;1.75;1.13;;;;;;;19.59;61.17;100110.59;10380539;28;96646;-89
2023/07/07 01:50:34;;;;;;;2.13;1.00;;;;;;;19.77;60.51;100109.97;10377589;28;96952;-89
2023/07/07 01:55:42;;;;;;;1.42;0.93;;;;;;;19.87;60.07;100096.75;10378069;28;97203;-90
2023/07/07 02:00:49;;;;;;;1.83;1.20;;;;;;;19.79;60.39;100091.16;10378206;28;96626;-89
2023/07/07 02:05:54;;;;;;;1.98;0.95;;;;;;;20.30;59.20;100084.31;10379889;28;97300;-90
2023/07/07 02:11:14;;;;;;;2.78;1.20;;;;;;;19.92;59.81;100090.06;10372342;28;96694;-89
2023/07/07 02:16:18;;;;;;;2.05;1.10;;;;;;;19.26;61.74;100093.56;10378756;28;96658;-89
2023/07/07 02:21:26;;;;;;;1.23;0.82;;;;;;;19.34;61.83;100100.13;10379095;28;96944;-89
2023/07/07 02:26:30;;;;;;;1.75;0.98;;;;;;;19.62;60.87;100091.66;10376643;28;96860;-89
2023/07/07 02:31:34;;;;;;;1.33;0.93;;;;;;;19.49;61.12;100091.78;10379368;28;96719;-90
2023/07/07 02:36:40;;;;;;;1.55;1.17;;;;;;;19.43;60.98;100076.25;10379938;28;96773;-90
2023/07/07 02:41:46;;;;;;;1.95;1.20;;;;;;;19.00;62.01;100084.03;10378003;28;96656;-91
2023/07/07 02:46:51;;;;;;;1.15;0.95;;;;;;;18.41;63.98;100074.34;10381547;28;96522;-90
2023/07/07 02:51:59;;;;;;;1.58;0.98;;;;;;;18.94;62.37;100071.16;10378544;28;96840;-90
2023/07/07 02:57:20;;;;;;;1.42;1.20;;;;;;;19.12;61.87;100066.25;10339248;28;96744;-90
2023/07/07 03:02:25;;;;;;;1.60;1.15;;;;;;;19.06;61.92;100064.88;10375141;28;96651;-90
2023/07/07 03:07:32;;;;;;;1.80;1.17;;;;;;;19.13;61.75;100060.78;10377657;28;96781;-91
2023/07/07 03:12:36;;;;;;;1.75;1.10;;;;;;;19.02;62.09;100055.44;10377418;28;96886;-90
2023/07/07 03:17:41;;;;;;;1.83;1.00;;;;;;;19.10;61.65;100044.16;10381306;28;96604;-90
2023/07/07 03:22:49;;;;;;;1.90;1.05;;;;;;;18.88;62.49;100047.66;10377925;28;96751;-90
2023/07/07 03:27:53;;;;;;;1.40;0.77;;;;;;;19.12;61.73;100045.75;10378461;28;96758;-90
2023/07/07 03:32:57;;;;;;;2.00;1.17;;;;;;;18.73;62.86;100046.13;10376893;28;97350;-90
2023/07/07 03:38:05;;;;;;;2.00;0.93;;;;;;;18.34;63.91;100045.59;10378520;28;96814;-90
2023/07/07 03:43:10;;;;;;;1.67;0.93;;;;;;;18.64;62.93;100046.00;10376965;28;97267;-90
2023/07/07 03:48:14;;;;;;;1.05;0.93;;;;;;;18.56;63.29;100040.41;10381520;28;96710;-91
2023/07/07 03:53:19;;;;;;;2.55;1.23;;;;;;;18.90;62.24;100039.53;10386128;22;98049;-90
2023/07/07 03:58:24;;;;;;;1.55;0.82;;;;;;;19.15;61.36;100040.19;10373585;28;97630;-91
2023/07/07 04:03:27;;;;;;;2.53;0.93;;;;;;;18.85;62.42;100053.19;10369384;28;97421;-91
2023/07/07 04:08:33;;;;;;;1.55;0.75;;;;;;;19.09;61.98;100053.97;10382677;28;96578;-91
2023/07/07 04:13:38;;;;;;;1.73;0.82;;;;;;;18.62;62.73;100055.94;10379683;28;96655;-90
2023/07/07 04:18:43;;;;;;;1.23;0.93;;;;;;;17.94;65.01;100061.88;10388530;28;97405;-90
2023/07/07 04:23:50;;;;;;;;;;;;;;;18.60;64.39;100052.53;10422793;28;96894;-89
2023/07/07 04:28:54;;;;;;;2.17;1.13;;;;;;;18.66;62.84;100046.75;10429054;28;96654;-90
2023/07/07 04:33:57;;;;;;;1.63;1.07;;;;;;;18.52;63.53;100053.13;10435730;28;96979;-91
2023/07/07 04:39:03;;;;;;;2.10;1.20;;;;;;;18.80;62.49;100052.69;10452504;28;96780;-91
2023/07/07 04:44:07;;;;;;;1.77;1.15;;;;;;;18.63;63.34;100055.81;10439483;28;97638;-89
2023/07/07 04:49:11;;;;;;;2.10;1.27;;;;;;;18.80;63.01;100052.69;10427634;28;96709;-91
2023/07/07 04:54:35;;;;;;;2.13;1.40;;;;;;;18.39;63.59;100054.09;10385892;28;96972;-90
2023/07/07 04:59:38;;;;;;;1.95;1.20;;;;;;;18.10;64.53;100066.91;10380593;28;96917;-91
2023/07/07 05:04:42;;;;;;;2.00;1.00;;;;;;;18.19;64.59;100056.44;10386323;28;96557;-91
2023/07/07 05:09:46;;;;;;;2.42;1.20;;;;;;;17.99;65.43;100065.03;10390800;28;96689;-90
2023/07/07 05:14:49;;;;;;;;;;;;;;;18.40;64.71;100063.81;10386838;28;96621;-90
2023/07/07 05:19:52;;;;;;;2.33;1.13;;;;;;;18.45;63.70;100058.97;10379322;28;96660;-89
2023/07/07 05:25:15;;;;;;;2.30;1.30;;;;;;;17.97;65.19;100074.09;10374252;28;96817;-90
2023/07/07 05:30:18;;;;;;;1.60;1.13;;;;;;;17.96;64.80;100075.06;10378723;28;96668;-89
2023/07/07 05:35:22;;;;;;;3.28;1.60;;;;;;;18.15;64.61;100070.09;10377980;28;97290;-90
2023/07/07 05:40:26;;;;;;;3.28;1.10;;;;;;;18.59;63.25;100070.31;10377053;28;96874;-90
2023/07/07 05:45:29;;;;;;;;;;;;;;;18.48;64.25;100077.44;10378067;28;96624;-89
2023/07/07 05:50:33;;;;;;;1.88;1.17;;;;;;;18.33;64.26;100075.88;10377640;28;96667;-90
2023/07/07 05:55:38;;;;;;;1.30;0.93;;;;;;;18.74;63.25;100079.00;10376779;28;96699;-89
2023/07/07 06:00:42;;;;;;;2.28;1.30;;;;;;;18.57;64.14;100090.06;10384707;28;97719;-90
2023/07/07 06:06:02;;;;;;;3.17;1.35;;;;;;;18.65;64.11;100093.88;10411982;28;97433;-90
2023/07/07 06:11:24;;;;;;;1.88;1.17;;;;;;;19.07;62.98;100098.63;10412949;28;97502;-89
2023/07/07 06:16:27;;;;;;;2.10;1.20;;;;;;;19.12;62.99;100106.25;10418751;27;97062;-91
2023/07/07 06:21:31;;;;;;;2.58;1.13;;;;;;;18.99;63.52;100105.50;10418361;27;97006;-90
2023/07/07 06:26:35;;;;;;;2.10;1.38;;;;;;;19.15;63.67;100116.69;10418464;28;96672;-90
2023/07/07 06:31:39;;;;;;;2.00;1.10;;;;;;;19.36;63.17;100120.34;10419613;28;97167;-90
2023/07/07 06:36:42;;;;;;;2.25;1.45;;;;;;;19.47;62.95;100124.91;10422498;28;96625;-91
2023/07/07 06:41:47;;;;;;;1.83;1.10;;;;;;;19.72;62.35;100119.34;10430570;27;96737;-90
2023/07/07 06:46:50;;;;;;;2.03;1.27;;;;;;;19.96;61.91;100112.88;10428836;27;96770;-90
2023/07/07 06:52:11;;;;;;;1.90;1.10;;;;;;;19.80;62.56;100114.22;10400772;28;96920;-91
2023/07/07 06:57:33;;;;;;;2.88;1.65;;;;;;;19.68;62.76;100109.88;10385024;28;96778;-90
2023/07/07 07:02:36;;;;;;;2.50;1.35;;;;;;;19.70;62.77;100110.59;10394826;28;96735;-90
2023/07/07 07:07:40;;;;;;;1.65;1.35;;;;;;;19.95;61.76;100113.00;10398593;28;96665;-90
2023/07/07 07:12:45;;;;;;;2.50;1.27;;;;;;;19.98;61.54;100096.72;10441941;27;97481;-90
2023/07/07 07:17:48;;;;;;;2.00;1.05;;;;;;;20.23;60.39;100099.97;10448280;27;97257;-93
2023/07/07 07:22:51;;;;;;;2.38;1.48;;;;;;;20.12;59.99;100081.28;10447267;27;97224;-92
2023/07/07 07:27:56;;;;;;;3.40;1.30;;;;;;;20.18;59.77;100086.16;10424452;28;96727;-92
2023/07/07 07:33:00;;;;;;;3.85;1.60;;;;;;;20.44;59.59;100086.69;10412591;28;96604;-95
2023/07/07 07:38:03;;;;;;;2.03;1.20;;;;;;;20.39;60.10;100086.22;10413575;28;96477;-93
2023/07/07 07:43:08;;;;;;;2.27;1.30;;;;;;;20.42;60.24;100085.13;10409757;28;96606;-93
2023/07/07 07:48:13;;;;;;;1.90;1.10;;;;;;;20.66;59.73;100078.59;10405431;28;96655;-92
2023/07/07 07:53:16;;;;;;;2.70;1.35;;;;;;;20.96;59.06;100088.53;10395958;28;96808;-92
2023/07/07 07:58:21;;;;;;;3.90;1.40;;;;;;;21.24;58.58;100094.09;10397931;28;96627;-93
2023/07/07 08:03:24;;;;;;;2.30;1.70;;;;;;;21.34;58.06;100097.69;10449570;28;96475;-90
2023/07/07 08:08:27;;;;;;;2.28;1.55;;;;;;;21.67;57.42;100088.56;10454133;28;97214;-93
2023/07/07 08:13:39;;;;;;;1.93;1.20;;;;;;;21.55;57.63;100083.41;10452815;28;96613;-93
2023/07/07 08:18:48;;;;;;;2.33;1.30;;;;;;;21.86;55.52;100075.22;10426870;28;96872;-93
2023/07/07 08:23:58;;;;;;;2.03;1.20;;;;;;;22.10;55.09;100091.84;10410802;28;96653;-94
2023/07/07 08:29:14;;;;;;;4.00;1.52;;;;;;;22.16;54.03;100085.06;10410107;28;96816;-94
2023/07/07 08:34:28;;;;;;;2.50;1.40;;;;;;;22.43;53.94;100069.16;10410545;28;97134;-93
2023/07/07 08:39:50;;;;;;;2.75;1.48;;;;;;;22.63;52.92;100069.03;10406079;28;96662;-95
2023/07/07 08:45:01;;;;;;;1.85;1.30;;;;;;;22.97;51.78;100056.06;10401860;28;96744;-95
2023/07/07 08:50:10;;;;;;;2.40;1.23;;;;;;;23.07;51.41;100058.69;10399232;28;96775;-94
2023/07/07 08:55:49;;;;;;;2.35;1.30;;;;;;;23.40;51.26;100053.69;10404911;28;96557;-93
2023/07/07 09:01:10;;;;;;;2.35;1.27;;;;;;;23.63;51.03;100046.94;10403940;28;96479;-94
2023/07/07 09:06:26;;;;;;;1.92;1.40;;;;;;;23.46;51.30;100049.53;10397421;28;96779;-94
2023/07/07 09:11:38;;;;;;;1.45;1.00;;;;;;;23.60;51.43;100049.94;10395755;28;96700;-95
2023/07/07 09:16:46;;;;;;;2.03;1.38;;;;;;;23.76;51.02;100038.56;10404484;28;96670;-95
2023/07/07 09:21:55;;;;;;;2.28;1.50;;;;;;;24.04;51.41;100042.94;10397420;28;96664;-93
2023/07/07 09:27:06;;;;;;;1.90;1.35;;;;;;;24.36;51.57;100037.91;10422237;28;96861;-94
2023/07/07 09:32:13;;;;;;;2.30;1.23;;;;;;;24.73;51.69;100033.22;10441353;28;96624;-93
2023/07/07 09:37:31;;;;;;;1.65;1.23;;;;;;;24.64;50.79;100036.84;10437999;28;96605;-93
2023/07/07 09:42:47;;;;;;;2.13;1.30;;;;;;;24.96;50.63;100035.41;10416262;28;97046;-93
2023/07/07 09:48:25;;;;;;;2.58;1.20;;;;;;;24.72;47.72;100038.75;10387272;28;96704;-92
2023/07/07 09:53:33;;;;;;;3.35;1.45;;;;;;;25.13;48.85;100046.16;10386071;28;96751;-94
2023/07/07 09:59:02;;;;;;;3.10;1.65;;;;;;;25.37;48.22;100059.78;10385403;28;97192;-94
2023/07/07 10:04:14;;;;;;;2.80;1.40;;;;;;;25.51;47.04;100063.75;10344411;28;97169;-93
2023/07/07 10:09:20;;;;;;;2.20;1.20;;;;;;;25.44;47.14;100060.00;10343944;28;96715;-91
2023/07/07 10:14:30;;;;;;;2.53;1.60;;;;;;;25.47;46.89;100065.06;10342099;28;96550;-94
2023/07/07 10:19:41;;;;;;;1.90;1.08;;;;;;;25.50;45.90;100051.28;10382102;28;96694;-91
2023/07/07 10:24:45;;;;;;;1.85;1.30;;;;;;;25.53;46.36;100059.91;10381018;28;96608;-90
2023/07/07 10:30:07;;;;;;;2.58;1.50;;;;;;;25.36;46.19;100065.34;10375404;28;96640;-93
2023/07/07 10:35:20;;;;;;;1.75;1.20;;;;;;;25.70;44.73;100064.41;10376618;28;97103;-93
2023/07/07 10:40:27;;;;;;;3.40;1.65;;;;;;;25.87;45.13;100068.00;10381462;28;97799;-93
2023/07/07 10:45:31;;;;;;;3.38;1.58;;;;;;;25.89;43.84;100065.97;10380967;28;96720;-90
2023/07/07 10:50:47;;;;;;;2.78;1.20;;;;;;;26.10;43.38;100061.00;10380495;28;96661;-92
2023/07/07 10:56:05;;;;;;;1.88;1.15;;;;;;;26.17;42.45;100063.88;10379331;28;96655;-92
2023/07/07 11:01:26;;;;;;;2.38;1.40;;;;;;;26.02;43.59;100069.09;10380911;28;97163;-92
2023/07/07 11:06:41;;;;;;;2.40;1.52;;;;;;;25.92;43.43;100057.56;10385743;28;96794;-92
2023/07/07 11:11:55;;;;;;;2.50;1.50;;;;;;;25.92;43.55;100075.63;10420821;27;97276;-92
2023/07/07 11:17:11;;;;;;;3.47;1.73;;;;;;;26.06;44.56;100075.81;10419017;27;96741;-92
2023/07/07 11:22:31;;;;;;;3.08;1.48;;;;;;;26.01;44.94;100071.91;10420552;28;97049;-91
2023/07/07 11:28:01;;;;;;;4.32;1.60;;;;;;;26.17;43.95;100074.69;10378227;28;96724;-93
2023/07/07 11:33:34;;;;;;;2.75;1.85;;;;;;;26.59;44.04;100073.63;10377003;28;96783;-90
2023/07/07 11:39:02;;;;;;;2.75;1.85;;;;;;;27.00;43.29;100079.91;10369574;28;96667;-91
2023/07/07 11:44:34;;;;;;;2.78;1.77;;;;;;;26.99;42.83;100076.34;10414510;28;96869;-93
2023/07/07 11:49:53;;;;;;;3.40;2.00;;;;;;;27.14;43.39;100092.75;10409635;27;97295;-92
2023/07/07 11:55:15;;;;;;;2.42;1.77;;;;;;;27.20;42.69;100088.53;10377991;28;97311;-88
2023/07/07 12:00:42;;;;;;;2.83;2.00;;;;;;;27.32;43.25;100082.59;10378056;28;96986;-94
2023/07/07 12:05:47;;;;;;;2.97;2.05;;;;;;;27.37;42.76;100088.34;10377798;28;96916;-92
2023/07/07 12:10:57;;;;;;;2.83;2.20;;;;;;;27.17;43.20;100086.16;10377123;28;96899;-92
2023/07/07 12:16:19;;;;;;;2.90;1.80;;;;;;;27.53;42.70;100082.88;10377872;28;96914;-92
2023/07/07 12:21:27;;;;;;;3.92;1.95;;;;;;;27.62;41.99;100092.66;10378305;28;97220;-93
2023/07/07 12:26:36;;;;;;;1.60;1.25;;;;;;;27.80;40.96;100103.31;10375828;28;96673;-90
2023/07/07 12:31:43;;;;;;;2.35;1.38;;;;;;;28.26;41.06;100105.13;10375605;28;97737;-89
2023/07/07 12:37:06;;;;;;;2.80;1.50;;;;;;;27.96;40.88;100100.56;10373760;28;97766;-92
2023/07/07 12:42:16;;;;;;;2.35;1.33;;;;;;;28.01;40.80;100103.56;10376388;28;96689;-93
2023/07/07 12:47:25;;;;;;;2.58;1.40;;;;;;;28.22;40.75;100122.72;10378835;28;96735;-95
2023/07/07 12:52:45;;;;;;;1.92;1.00;;;;;;;28.13;40.70;100115.69;10391578;28;97623;-92
2023/07/07 12:58:17;;;;;;;2.10;1.40;;;;;;;28.02;40.79;100108.81;10384043;28;96836;-92
2023/07/07 13:03:21;;;;;;;1.80;1.23;;;;;;;27.79;41.55;100112.41;10347924;28;96894;-93
2023/07/07 13:08:38;;;;;;;2.22;1.40;;;;;;;28.09;42.52;100106.22;10403392;28;96663;-91
2023/07/07 13:14:00;;;;;;;2.25;1.58;;;;;;;28.68;41.36;100107.44;10422532;28;96726;-89
2023/07/07 13:19:04;;;;;;;1.98;1.20;;;;;;;28.39;42.29;100108.16;10425647;28;96665;-92
2023/07/07 13:24:08;;;;;;;;;;;;;;;28.30;43.09;100111.06;10424641;28;96849;-95
2023/07/07 13:29:12;;;;;;;2.20;1.30;;;;;;;28.38;42.94;100113.72;10423030;27;96681;-93
2023/07/07 13:34:18;;;;;;;2.30;1.25;;;;;;;28.25;42.89;100114.28;10422464;28;96749;-91
2023/07/07 13:39:22;;;;;;;1.10;0.98;;;;;;;28.11;43.37;100109.59;10424247;28;96832;-93
2023/07/07 13:44:27;;;;;;;1.40;1.08;;;;;;;28.13;43.33;100096.75;10423904;28;96733;-90
2023/07/07 13:49:34;;;;;;;1.75;1.08;;;;;;;28.34;42.52;100110.56;10408628;28;96874;-92
2023/07/07 13:54:38;;;;;;;2.47;1.17;;;;;;;28.01;42.13;100107.09;10382733;28;97487;-93
2023/07/07 13:59:48;;;;;;;1.92;1.20;;;;;;;28.11;42.22;100120.44;10381771;28;97304;-93
2023/07/07 14:04:58;;;;;;;1.60;1.02;;;;;;;28.29;41.08;100136.44;10379670;28;96667;-91
2023/07/07 14:10:04;;;;;;;1.42;1.10;;;;;;;28.30;41.35;100136.28;10381199;28;96739;-90
2023/07/07 14:15:14;;;;;;;1.95;1.10;;;;;;;28.61;40.88;100128.16;10401436;28;96934;-90
2023/07/07 14:20:24;;;;;;;2.72;1.10;;;;;;;28.17;41.13;100138.66;10423710;28;96686;-91
2023/07/07 14:25:27;;;;;;;1.77;0.95;;;;;;;28.07;41.58;100132.63;10424598;28;96686;-94
2023/07/07 14:30:32;;;;;;;2.45;1.30;;;;;;;28.28;41.26;100148.25;10418253;27;96688;-95
2023/07/07 14:35:40;;;;;;;1.75;1.00;;;;;;;28.39;42.03;100153.31;10381916;28;96762;-93
2023/07/07 14:40:46;;;;;;;0.93;0.82;;;;;;;28.06;41.84;100155.28;10380685;28;96752;-88
2023/07/07 14:45:54;;;;;;;1.67;0.90;;;;;;;27.95;42.32;100159.22;10378261;28;96852;-93
2023/07/07 14:51:08;;;;;;;1.58;0.93;;;;;;;28.04;41.94;100154.63;10390286;28;96860;-93
2023/07/07 14:56:14;;;;;;;1.70;0.75;;;;;;;28.63;41.77;100170.28;10379090;28;96782;-90
2023/07/07 15:01:21;;;;;;;1.50;0.90;;;;;;;28.28;42.23;100173.47;10379487;28;97382;-93
2023/07/07 15:06:28;;;;;;;1.70;0.98;;;;;;;28.51;42.03;100178.97;10379821;28;97083;-92
2023/07/07 15:11:34;;;;;;;1.05;0.77;;;;;;;28.42;42.42;100180.03;10379531;28;97110;-91
2023/07/07 15:16:40;;;;;;;1.77;1.00;;;;;;;28.26;42.55;100171.94;10380501;28;97299;-92
2023/07/07 15:21:44;;;;;;;1.00;0.80;;;;;;;28.22;43.36;100179.56;10380654;28;96708;-92
2023/07/07 15:26:47;;;;;;;;;;;;;;;27.97;44.14;100191.50;10382306;28;96606;-92
2023/07/07 15:31:52;;;;;;;2.03;0.87;;;;;;;28.19;43.72;100179.09;10381267;28;97002;-92
2023/07/07 15:36:56;;;;;;;1.95;0.90;;;;;;;27.77;44.74;100192.91;10379310;28;97052;-91
2023/07/07 15:42:05;;;;;;;2.00;1.10;;;;;;;27.98;44.54;100195.88;10382162;28;96766;-94
2023/07/07 15:47:19;;;;;;;1.63;0.90;;;;;;;27.67;45.11;100197.63;10379922;28;96761;-90
2023/07/07 15:52:22;;;;;;;1.45;0.90;;;;;;;27.64;45.21;100196.09;10379208;28;96810;-92
2023/07/07 15:57:26;;;;;;;2.38;1.15;;;;;;;27.67;45.25;100205.75;10380264;28;97057;-90
2023/07/07 16:02:30;;;;;;;1.30;0.73;;;;;;;27.28;45.72;100208.28;10378593;28;97985;-90
2023/07/07 16:07:34;;;;;;;1.30;0.95;;;;;;;27.22;46.03;100205.38;10380071;28;96898;-91
2023/07/07 16:12:38;;;;;;;1.60;0.93;;;;;;;27.34;46.17;100214.88;10387687;28;97549;-91
2023/07/07 16:18:01;;;;;;;1.45;0.95;;;;;;;27.61;46.29;100209.97;10412368;28;97458;-92
2023/07/07 16:23:04;;;;;;;1.20;0.75;;;;;;;27.28;46.15;100204.72;10434741;22;96658;-91
2023/07/07 16:28:11;;;;;;;1.88;0.88;;;;;;;26.76;46.87;100202.25;10391787;28;96750;-93
2023/07/07 16:33:16;;;;;;;1.42;1.02;;;;;;;26.98;47.34;100225.94;10431545;28;96793;-93
2023/07/07 16:38:19;;;;;;;2.20;0.80;;;;;;;26.81;46.76;100210.69;10393350;28;96873;-87
2023/07/07 16:43:22;;;;;;;1.80;0.95;;;;;;;26.89;46.59;100218.81;10393291;28;97571;-90
2023/07/07 16:48:27;;;;;;;1.45;0.88;;;;;;;26.65;46.97;100226.00;10393048;28;97325;-92
2023/07/07 16:53:48;;;;;;;1.42;1.00;;;;;;;26.86;47.13;100221.00;10393598;28;96846;-93
2023/07/07 16:58:52;;;;;;;1.45;1.00;;;;;;;26.67;47.20;100229.38;10391630;28;96630;-90
2023/07/07 17:03:57;;;;;;;1.75;0.70;;;;;;;26.74;47.02;100223.16;10401970;28;96790;-92
2023/07/07 17:09:03;;;;;;;1.45;1.02;;;;;;;26.70;47.58;100229.03;10433347;28;96622;-89
2023/07/07 17:14:06;;;;;;;1.73;0.90;;;;;;;26.73;46.94;100226.84;10434678;28;97205;-93
2023/07/07 17:19:18;;;;;;;2.67;1.10;;;;;;;26.76;47.20;100234.66;10431438;28;96626;-90
2023/07/07 17:24:22;;;;;;;1.52;1.05;;;;;;;26.58;46.70;100225.81;10432041;28;96884;-88
2023/07/07 17:29:26;;;;;;;1.20;0.90;;;;;;;26.58;47.13;100224.94;10423645;28;98597;-90
2023/07/07 17:34:31;;;;;;;1.45;0.85;;;;;;;26.57;46.72;100234.94;10385894;28;96614;-88
2023/07/07 17:39:35;;;;;;;1.48;1.00;;;;;;;26.34;47.54;100235.59;10384657;28;96745;-85
2023/07/07 17:44:57;;;;;;;1.25;0.68;;;;;;;26.23;47.00;100250.22;10385196;28;96925;-89
2023/07/07 17:50:22;;;;;;;1.02;0.68;;;;;;;25.99;47.18;100255.47;10383179;28;96561;-93
2023/07/07 17:55:26;;;;;;;1.27;0.77;;;;;;;26.24;46.64;100260.03;10384744;28;97180;-90
2023/07/07 18:00:35;;;;;;;0.98;0.70;;;;;;;26.32;46.23;100272.69;10383606;28;96950;-92
2023/07/07 18:05:42;;;;;;;1.70;1.08;;;;;;;26.02;47.15;100271.38;10381975;28;96681;-87
2023/07/07 18:10:46;;;;;;;1.48;0.88;;;;;;;25.84;47.57;100274.09;10381587;28;97577;-91
2023/07/07 18:15:49;;;;;;;1.40;0.90;;;;;;;25.66;48.26;100281.31;10423553;28;97005;-91
2023/07/07 18:20:54;;;;;;;;;;;;;;;25.73;48.61;100295.91;10424111;28;96691;-91
2023/07/07 18:26:30;;;;;;;1.38;0.85;;;;;;;25.34;49.16;100291.81;10424476;28;97552;-89
2023/07/07 18:31:36;;;;;;;3.35;1.27;;;;;;;25.18;49.67;100299.72;10392048;27;96738;-93
2023/07/07 18:36:48;;;;;;;1.65;0.90;;;;;;;25.00;51.08;100304.22;10382520;28;96802;-91
2023/07/07 18:41:53;;;;;;;1.45;1.08;;;;;;;24.84;51.49;100310.22;10382478;28;96647;-90
2023/07/07 18:46:58;;;;;;;1.77;0.90;;;;;;;24.80;51.98;100316.06;10383225;28;97335;-92
2023/07/07 18:52:06;;;;;;;1.63;0.95;;;;;;;24.77;52.70;100311.81;10383750;28;96787;-93
2023/07/07 18:57:14;;;;;;;1.48;0.90;;;;;;;24.63;51.90;100314.19;10381823;28;96613;-92
2023/07/07 19:02:19;;;;;;;1.27;0.77;;;;;;;24.60;51.68;100315.31;10369154;28;97764;-95
2023/07/07 19:07:27;;;;;;;1.88;1.17;;;;;;;24.54;52.27;100310.53;10381996;28;96681;-91
2023/07/07 19:12:48;;;;;;;1.58;1.05;;;;;;;24.59;52.43;100328.91;10381254;28;96747;-90
2023/07/07 19:17:53;;;;;;;1.65;1.02;;;;;;;24.53;53.05;100329.53;10381478;28;96566;-96
2023/07/07 19:23:01;;;;;;;3.28;1.10;;;;;;;24.50;53.33;100333.34;10385463;28;96797;-90
2023/07/07 19:28:09;;;;;;;1.88;1.00;;;;;;;24.29;53.50;100327.31;10379474;28;96964;-89
2023/07/07 19:33:17;;;;;;;2.28;1.13;;;;;;;24.15;53.64;100329.59;10378460;28;96665;-89
2023/07/07 19:38:26;;;;;;;2.42;1.30;;;;;;;24.13;53.59;100319.00;10380036;28;97608;-94
2023/07/07 19:43:34;;;;;;;1.83;0.95;;;;;;;24.07;53.31;100334.81;10383154;28;96607;-92
2023/07/07 19:48:38;;;;;;;3.28;1.00;;;;;;;23.89;53.71;100329.34;10379961;28;97481;-92
2023/07/07 19:53:45;;;;;;;;;;;;;;;23.79;54.19;100333.88;10390227;28;97345;-89
2023/07/07 19:59:17;;;;;;;3.08;1.15;;;;;;;23.87;53.70;100320.59;10416677;28;96781;-92
2023/07/07 20:04:21;;;;;;;2.37;1.27;;;;;;;23.87;53.52;100325.09;10424824;27;96764;-93
2023/07/07 20:09:31;;;;;;;1.70;1.05;;;;;;;23.78;53.77;100331.31;10424085;28;96715;-92
2023/07/07 20:14:36;;;;;;;1.33;0.93;;;;;;;23.68;54.19;100340.25;10423497;27;96808;-92
2023/07/07 20:19:39;;;;;;;2.70;1.35;;;;;;;23.71;54.06;100344.50;10423619;27;97038;-92
2023/07/07 20:24:44;;;;;;;3.35;1.23;;;;;;;23.55;55.00;100347.75;10423259;28;97695;-92
2023/07/07 20:29:47;;;;;;;1.55;1.00;;;;;;;23.33;55.96;100345.28;10399208;28;96763;-94
2023/07/07 20:35:09;;;;;;;2.53;1.17;;;;;;;23.33;55.91;100355.19;10380848;28;96938;-89
2023/07/07 20:40:20;;;;;;;3.27;1.23;;;;;;;23.23;56.92;100367.75;10383455;28;96857;-94
2023/07/07 20:45:23;;;;;;;1.70;1.10;;;;;;;23.11;57.26;100379.59;10383212;28;96539;-92
2023/07/07 20:50:31;;;;;;;1.77;1.30;;;;;;;23.12;57.26;100402.75;10381577;28;96810;-91
2023/07/07 20:55:37;;;;;;;2.13;1.23;;;;;;;23.14;57.14;100385.53;10385851;28;96573;-94
2023/07/07 21:00:45;;;;;;;1.65;1.00;;;;;;;23.03;57.92;100400.88;10384363;28;96533;-90
2023/07/07 21:05:49;;;;;;;2.10;1.27;;;;;;;23.03;57.69;100403.56;10338460;28;96862;-94
2023/07/07 21:10:53;;;;;;;1.33;1.03;;;;;;;22.89;58.49;100404.78;10345831;28;97307;-94
2023/07/07 21:15:57;;;;;;;2.05;1.27;;;;;;;22.83;58.51;100399.09;10348186;28;97458;-92
2023/07/07 21:21:00;;;;;;;1.57;0.90;;;;;;;22.87;58.46;100396.00;10401996;28;96592;-93
2023/07/07 21:26:26;;;;;;;2.20;1.30;;;;;;;22.78;58.99;100412.94;10429242;28;96724;-93
2023/07/07 21:31:31;;;;;;;1.95;1.05;;;;;;;22.78;58.82;100417.44;10388336;28;96720;-92
2023/07/07 21:36:37;;;;;;;3.33;1.20;;;;;;;22.68;59.55;100406.63;10386314;28;96695;-90
2023/07/07 21:41:42;;;;;;;2.38;1.08;;;;;;;22.76;58.96;100422.91;10386920;28;96598;-93
2023/07/07 21:46:54;;;;;;;2.47;1.05;;;;;;;22.78;59.28;100412.94;10387531;28;96529;-94
2023/07/07 21:52:01;;;;;;;2.22;1.33;;;;;;;22.70;60.04;100410.03;10387135;28;96713;-94
2023/07/07 21:57:17;;;;;;;3.22;1.65;;;;;;;22.55;60.54;100409.53;10390587;28;97092;-94
2023/07/07 22:02:24;;;;;;;2.83;1.15;;;;;;;22.57;60.29;100399.50;10383048;28;96619;-95
2023/07/07 22:07:29;;;;;;;2.15;1.30;;;;;;;22.69;59.84;100410.16;10383814;28;96879;-90
2023/07/07 22:12:35;;;;;;;2.92;1.63;;;;;;;22.64;59.66;100415.94;10418242;28;96648;-93
2023/07/07 22:17:57;;;;;;;2.23;1.27;;;;;;;22.67;59.94;100417.47;10425983;27;96683;-91
2023/07/07 22:23:03;;;;;;;2.70;1.38;;;;;;;22.73;60.03;100415.16;10425100;28;97655;-93
2023/07/07 22:28:13;;;;;;;;;;;;;;;22.69;61.34;100415.53;10403454;28;97249;-91
2023/07/07 22:33:17;;;;;;;2.28;1.50;;;;;;;22.63;60.89;100423.13;10384190;28;96746;-93
2023/07/07 22:38:23;;;;;;;1.85;1.30;;;;;;;22.66;60.97;100434.56;10382410;28;96847;-92
2023/07/07 22:43:27;;;;;;;2.25;1.63;;;;;;;22.76;60.49;100422.91;10384992;28;96637;-90
2023/07/07 22:48:31;;;;;;;2.25;1.50;;;;;;;22.97;60.08;100428.28;10384840;28;97295;-90
2023/07/07 22:53:52;;;;;;;2.63;1.52;;;;;;;23.04;60.06;100429.44;10384597;28;97309;-90
2023/07/07 22:58:58;;;;;;;2.63;1.30;;;;;;;23.17;59.69;100425.53;10386514;28;96990;-91
2023/07/07 23:04:06;;;;;;;1.55;1.08;;;;;;;23.14;60.00;100430.31;10387737;28;96719;-90
2023/07/07 23:09:49;;;;;;;2.53;1.40;;;;;;;23.18;60.23;100429.06;10383155;28;96716;-88
2023/07/07 23:14:54;;;;;;;2.60;1.50;;;;;;;23.14;60.26;100428.47;10383309;28;96787;-90
2023/07/07 23:19:59;;;;;;;3.20;1.30;;;;;;;23.25;60.07;100431.03;10420971;28;97236;-90
2023/07/07 23:25:04;;;;;;;3.33;1.48;;;;;;;23.37;59.53;100427.25;10437908;27;97688;-91
2023/07/07 23:30:17;;;;;;;3.00;1.60;;;;;;;23.19;60.19;100430.75;10410502;28;96690;-90
2023/07/07 23:35:20;;;;;;;2.13;1.50;;;;;;;23.23;59.85;100443.75;10414054;28;96675;-91
2023/07/07 23:40:26;;;;;;;3.47;1.27;;;;;;;23.05;60.24;100441.84;10401673;28;96820;-90
2023/07/07 23:45:31;;;;;;;2.75;1.42;;;;;;;23.01;60.65;100443.97;10396182;28;96777;-91